Time,TemperatureF,DewpointF,PressureIn,WindDirection,WindDirectionDegrees,WindSpeedMPH,WindSpeedGustMPH,Humidity,HourlyPrecipIn,Conditions,Clouds,dailyrainin,SoftwareType,DateUTC
2013-09-09 00:01:00,52.0,34.4,29.59,North,0,0.0,0.0,51,0.00,,---,0.00,VWS V14.01,2013-09-09 04:01:00,
2013-09-09 00:06:00,52.0,34.4,29.59,North,0,0.0,0.0,51,0.00,,---,0.00,VWS V14.01,2013-09-09 04:06:00,
2013-09-09 00:11:00,51.8,33.8,29.59,North,0,0.0,0.0,50,0.00,,---,0.00,VWS V14.01,2013-09-09 04:11:00,
2013-09-09 00:16:00,51.8,33.8,29.59,North,0,0.0,0.0,50,0.00,,---,0.00,VWS V14.01,2013-09-09 04:16:00,
2013-09-09 00:21:00,51.6,33.6,29.59,North,0,0.0,0.0,50,0.00,,---,0.00,VWS V14.01,2013-09-09 04:21:00,
2013-09-09 00:26:00,51.6,33.6,29.59,North,0,0.0,0.0,50,0.00,,---,0.00,VWS V14.01,2013-09-09 04:26:00,
2013-09-09 00:31:00,51.4,33.9,29.59,North,9,0.0,0.0,51,0.00,,---,0.00,VWS V14.01,2013-09-09 04:31:00,
2013-09-09 00:36:00,51.4,33.9,29.59,North,9,0.0,0.0,51,0.00,,---,0.00,VWS V14.01,2013-09-09 04:36:00,
2013-09-09 00:41:00,51.3,33.8,29.62,NNE,14,0.0,0.0,51,0.00,,---,0.00,VWS V14.01,2013-09-09 04:41:00,
2013-09-09 00:46:00,50.9,32.9,29.62,NNE,14,0.0,0.0,50,0.00,,---,0.00,VWS V14.01,2013-09-09 04:46:00,
2013-09-09 00:51:00,50.9,33.4,29.62,NNE,14,0.0,0.0,51,0.00,,---,0.00,VWS V14.01,2013-09-09 04:51:00,
2013-09-09 00:56:00,50.7,33.8,29.62,NNE,14,0.0,0.0,52,0.00,,---,0.00,VWS V14.01,2013-09-09 04:56:00,
2013-09-09 01:01:00,50.5,33.1,29.62,NNE,14,0.0,0.0,51,0.00,,---,0.00,VWS V14.01,2013-09-09 05:01:00,
2013-09-09 01:06:00,50.4,33.4,29.62,NNE,14,0.0,0.0,52,0.00,,---,0.00,VWS V14.01,2013-09-09 05:06:00,
2013-09-09 01:11:00,50.2,33.2,29.62,NNE,14,0.0,0.0,52,0.00,,---,0.00,VWS V14.01,2013-09-09 05:11:00,
2013-09-09 01:16:00,50.2,34.2,29.62,NNE,14,0.0,0.0,54,0.00,,---,0.00,VWS V14.01,2013-09-09 05:16:00,
2013-09-09 01:21:00,50.0,34.0,29.62,NNE,14,0.0,0.0,54,0.00,,---,0.00,VWS V14.01,2013-09-09 05:21:00,
2013-09-09 01:26:00,49.8,35.2,29.62,NNE,14,0.0,0.0,57,0.00,,---,0.00,VWS V14.01,2013-09-09 05:26:00,
2013-09-09 01:31:00,49.6,35.0,29.62,NNE,14,0.0,0.0,57,0.00,,---,0.00,VWS V14.01,2013-09-09 05:31:00,
2013-09-09 01:36:00,49.5,34.4,29.62,NNE,14,0.0,0.0,56,0.00,,---,0.00,VWS V14.01,2013-09-09 05:36:00,
2013-09-09 01:41:00,49.5,34.9,29.62,NNE,14,0.0,0.0,57,0.00,,---,0.00,VWS V14.01,2013-09-09 05:41:00,
2013-09-09 01:46:00,49.5,35.3,29.62,NNE,14,0.0,0.0,58,0.00,,---,0.00,VWS V14.01,2013-09-09 05:46:00,
2013-09-09 01:51:00,49.3,34.7,29.62,NNE,14,0.0,0.0,57,0.00,,---,0.00,VWS V14.01,2013-09-09 05:51:00,
2013-09-09 01:56:00,49.1,34.5,29.62,NNE,14,0.0,0.0,57,0.00,,---,0.00,VWS V14.01,2013-09-09 05:56:00,
2013-09-09 02:01:00,49.1,35.0,29.62,NNE,14,0.0,0.0,58,0.00,,---,0.00,VWS V14.01,2013-09-09 06:01:00,
2013-09-09 02:06:00,48.9,34.4,29.62,NNE,14,0.0,0.0,57,0.00,,---,0.00,VWS V14.01,2013-09-09 06:06:00,
2013-09-09 02:11:00,48.7,34.2,29.62,NNE,14,0.0,0.0,57,0.00,,---,0.00,VWS V14.01,2013-09-09 06:11:00,
2013-09-09 02:16:00,48.7,34.6,29.62,NNE,14,0.0,0.0,58,0.00,,---,0.00,VWS V14.01,2013-09-09 06:16:00,
2013-09-09 02:21:00,48.6,34.5,29.62,NNE,14,0.0,0.0,58,0.00,,---,0.00,VWS V14.01,2013-09-09 06:21:00,
2013-09-09 02:26:00,48.6,34.5,29.62,NNE,14,0.0,0.0,58,0.00,,---,0.00,VWS V14.01,2013-09-09 06:26:00,
2013-09-09 02:31:00,48.6,34.9,29.62,NNE,14,0.0,0.0,59,0.00,,---,0.00,VWS V14.01,2013-09-09 06:31:00,
2013-09-09 02:36:00,48.6,34.9,29.62,NNE,14,0.0,0.0,59,0.00,,---,0.00,VWS V14.01,2013-09-09 06:36:00,
2013-09-09 02:41:00,48.4,34.3,29.62,NNE,14,0.0,0.0,58,0.00,,---,0.00,VWS V14.01,2013-09-09 06:41:00,
2013-09-09 02:46:00,48.4,34.7,29.62,NNE,14,0.0,0.0,59,0.00,,---,0.00,VWS V14.01,2013-09-09 06:46:00,
2013-09-09 02:51:00,48.4,35.2,29.62,NNE,14,0.0,0.0,60,0.00,,---,0.00,VWS V14.01,2013-09-09 06:51:00,
2013-09-09 02:56:00,48.4,35.2,29.62,NNE,14,0.0,0.0,60,0.00,,---,0.00,VWS V14.01,2013-09-09 06:56:00,
2013-09-09 03:01:00,48.2,35.0,29.62,NNE,13,0.0,0.0,60,0.00,,---,0.00,VWS V14.01,2013-09-09 07:01:00,
2013-09-09 03:06:00,48.2,34.6,29.62,NNE,13,0.0,0.0,59,0.00,,---,0.00,VWS V14.01,2013-09-09 07:06:00,
2013-09-09 03:11:00,48.0,34.8,29.62,NNE,13,0.0,0.0,60,0.00,,---,0.00,VWS V14.01,2013-09-09 07:11:00,
2013-09-09 03:16:00,48.0,34.8,29.62,NNE,13,0.0,0.0,60,0.00,,---,0.00,VWS V14.01,2013-09-09 07:16:00,
2013-09-09 03:21:00,48.0,34.8,29.62,NNE,13,0.0,0.0,60,0.00,,---,0.00,VWS V14.01,2013-09-09 07:21:00,
2013-09-09 03:26:00,47.8,34.6,29.62,NNE,13,0.0,0.0,60,0.00,,---,0.00,VWS V14.01,2013-09-09 07:26:00,
2013-09-09 03:31:00,47.8,35.1,29.62,NNE,13,0.0,0.0,61,0.00,,---,0.00,VWS V14.01,2013-09-09 07:31:00,
2013-09-09 03:36:00,47.7,34.9,29.65,NNE,13,0.0,0.0,61,0.00,,---,0.00,VWS V14.01,2013-09-09 07:36:00,
2013-09-09 03:41:00,47.7,35.3,29.65,NNE,13,0.0,0.0,62,0.00,,---,0.00,VWS V14.01,2013-09-09 07:41:00,
2013-09-09 03:46:00,47.7,35.3,29.65,NNE,13,0.0,0.0,62,0.00,,---,0.00,VWS V14.01,2013-09-09 07:46:00,
2013-09-09 03:51:00,47.7,35.3,29.65,NNE,13,0.0,0.0,62,0.00,,---,0.00,VWS V14.01,2013-09-09 07:51:00,
2013-09-09 03:56:00,47.7,35.3,29.65,North,353,0.0,0.0,62,0.00,,---,0.00,VWS V14.01,2013-09-09 07:56:00,
2013-09-09 04:01:00,47.5,35.1,29.65,NNE,15,0.0,0.0,62,0.00,,---,0.00,VWS V14.01,2013-09-09 08:01:00,
2013-09-09 04:06:00,47.5,35.1,29.65,NNE,15,0.0,0.0,62,0.00,,---,0.00,VWS V14.01,2013-09-09 08:06:00,
2013-09-09 04:11:00,47.7,35.7,29.65,North,0,0.0,0.0,63,0.00,,---,0.00,VWS V14.01,2013-09-09 08:11:00,
2013-09-09 04:16:00,47.5,35.5,29.65,North,0,0.0,0.0,63,0.00,,---,0.00,VWS V14.01,2013-09-09 08:16:00,
2013-09-09 04:21:00,47.5,35.9,29.65,North,353,0.0,0.0,64,0.00,,---,0.00,VWS V14.01,2013-09-09 08:21:00,
2013-09-09 04:26:00,47.7,36.9,29.65,NNW,345,0.0,0.0,66,0.00,,---,0.00,VWS V14.01,2013-09-09 08:26:00,
2013-09-09 04:31:00,47.7,36.9,29.65,North,357,0.0,0.0,66,0.00,,---,0.00,VWS V14.01,2013-09-09 08:31:00,
2013-09-09 04:36:00,47.3,36.5,29.65,NNW,343,0.0,0.0,66,0.00,,---,0.00,VWS V14.01,2013-09-09 08:36:00,
2013-09-09 04:41:00,47.5,37.1,29.65,NNW,348,0.0,0.0,67,0.00,,---,0.00,VWS V14.01,2013-09-09 08:41:00,
2013-09-09 04:46:00,47.5,36.7,29.65,NNW,348,0.0,0.0,66,0.00,,---,0.00,VWS V14.01,2013-09-09 08:46:00,
2013-09-09 04:51:00,47.3,36.5,29.65,North,1,0.0,0.0,66,0.00,,---,0.00,VWS V14.01,2013-09-09 08:51:00,
2013-09-09 04:56:00,47.3,36.5,29.68,NNW,348,0.0,0.0,66,0.00,,---,0.00,VWS V14.01,2013-09-09 08:56:00,
2013-09-09 05:01:00,47.3,36.2,29.68,North,5,0.0,0.0,65,0.00,,---,0.00,VWS V14.01,2013-09-09 09:01:00,
2013-09-09 05:06:00,47.3,36.2,29.68,North,353,6.3,6.3,65,0.00,,---,0.00,VWS V14.01,2013-09-09 09:06:00,
2013-09-09 05:11:00,47.3,35.8,29.68,North,353,0.0,0.0,64,0.00,,---,0.00,VWS V14.01,2013-09-09 09:11:00,
2013-09-09 05:16:00,47.3,35.4,29.68,North,3,0.0,0.0,63,0.00,,---,0.00,VWS V14.01,2013-09-09 09:16:00,
2013-09-09 05:20:00,47.3,35.8,29.68,North,353,6.3,6.3,64,0.00,,---,0.00,VWS V14.01,2013-09-09 09:20:00,
2013-09-09 05:25:00,47.1,35.6,29.68,North,357,4.5,4.5,64,0.00,,---,0.00,VWS V14.01,2013-09-09 09:25:00,
2013-09-09 05:30:00,47.1,36.4,29.68,North,353,0.0,0.0,66,0.00,,---,0.00,VWS V14.01,2013-09-09 09:30:00,
2013-09-09 05:35:00,46.9,36.2,29.68,North,0,0.0,0.0,66,0.00,,---,0.00,VWS V14.01,2013-09-09 09:35:00,
2013-09-09 05:40:00,46.8,36.4,29.68,North,0,0.0,0.0,67,0.00,,---,0.00,VWS V14.01,2013-09-09 09:40:00,
2013-09-09 05:45:00,46.6,36.2,29.68,North,0,4.5,5.4,67,0.00,,---,0.00,VWS V14.01,2013-09-09 09:45:00,
2013-09-09 05:50:00,46.6,36.2,29.71,North,0,0.0,0.0,67,0.00,,---,0.00,VWS V14.01,2013-09-09 09:50:00,
2013-09-09 05:55:00,46.2,36.3,29.71,North,0,0.0,0.0,68,0.00,,---,0.00,VWS V14.01,2013-09-09 09:55:00,
2013-09-09 06:00:00,46.0,36.1,29.71,North,9,0.0,0.0,68,0.00,,---,0.00,VWS V14.01,2013-09-09 10:00:00,
2013-09-09 06:05:00,46.0,36.1,29.71,North,8,0.0,0.0,68,0.00,,---,0.00,VWS V14.01,2013-09-09 10:05:00,
2013-09-09 06:10:00,46.0,36.1,29.71,North,10,0.0,0.0,68,0.00,,---,0.00,VWS V14.01,2013-09-09 10:10:00,
2013-09-09 06:15:00,46.0,36.1,29.71,NNE,13,0.0,0.0,68,0.00,,---,0.00,VWS V14.01,2013-09-09 10:15:00,
2013-09-09 06:20:00,46.0,36.1,29.71,North,0,0.0,0.0,68,0.00,,---,0.00,VWS V14.01,2013-09-09 10:20:00,
2013-09-09 06:25:00,45.9,35.9,29.71,NNE,15,0.0,0.0,68,0.00,,---,0.00,VWS V14.01,2013-09-09 10:25:00,
2013-09-09 06:30:00,45.9,35.9,29.71,NNE,31,0.0,0.0,68,0.00,,---,0.00,VWS V14.01,2013-09-09 10:30:00,
2013-09-09 06:35:00,45.9,35.9,29.71,NNE,31,0.0,0.0,68,0.00,,---,0.00,VWS V14.01,2013-09-09 10:35:00,
2013-09-09 06:40:00,45.7,35.7,29.71,NNE,31,0.0,0.0,68,0.00,,---,0.00,VWS V14.01,2013-09-09 10:40:00,
2013-09-09 06:45:00,45.5,35.6,29.74,NNE,31,0.0,0.0,68,0.00,,---,0.00,VWS V14.01,2013-09-09 10:45:00,
2013-09-09 06:50:00,45.7,35.7,29.74,NNE,31,0.0,0.0,68,0.00,,---,0.00,VWS V14.01,2013-09-09 10:50:00,
2013-09-09 06:55:00,45.7,35.7,29.74,NNE,31,0.0,0.0,68,0.00,,---,0.00,VWS V14.01,2013-09-09 10:55:00,
2013-09-09 07:00:00,45.7,35.7,29.74,NNE,31,0.0,0.0,68,0.00,,---,0.00,VWS V14.01,2013-09-09 11:00:00,
2013-09-09 07:05:00,45.9,35.9,29.74,NNE,31,0.0,0.0,68,0.00,,---,0.00,VWS V14.01,2013-09-09 11:05:00,
2013-09-09 07:10:00,46.0,36.5,29.74,North,357,0.0,0.0,69,0.00,,---,0.00,VWS V14.01,2013-09-09 11:10:00,
2013-09-09 07:15:00,46.2,36.6,29.74,North,357,0.0,0.0,69,0.00,,---,0.00,VWS V14.01,2013-09-09 11:15:00,
2013-09-09 07:20:00,46.2,36.3,29.74,North,8,0.0,0.0,68,0.00,,---,0.00,VWS V14.01,2013-09-09 11:20:00,
2013-09-09 07:25:00,46.4,36.4,29.74,North,0,0.0,0.0,68,0.00,,---,0.00,VWS V14.01,2013-09-09 11:25:00,
2013-09-09 07:30:00,46.6,36.2,29.74,NNW,344,0.0,0.0,67,0.00,,---,0.00,VWS V14.01,2013-09-09 11:30:00,
2013-09-09 07:35:00,46.6,35.8,29.74,NNE,25,0.0,0.0,66,0.00,,---,0.00,VWS V14.01,2013-09-09 11:35:00,
2013-09-09 07:40:00,46.8,36.0,29.74,North,11,0.0,0.0,66,0.00,,---,0.00,VWS V14.01,2013-09-09 11:40:00,
2013-09-09 07:45:00,46.8,36.0,29.74,NNE,30,0.0,0.0,66,0.00,,---,0.00,VWS V14.01,2013-09-09 11:45:00,
2013-09-09 07:50:00,46.9,35.8,29.74,North,357,0.0,0.0,65,0.00,,---,0.00,VWS V14.01,2013-09-09 11:50:00,
2013-09-09 07:55:00,47.1,36.0,29.74,North,6,0.0,0.0,65,0.00,,---,0.00,VWS V14.01,2013-09-09 11:55:00,
2013-09-09 08:00:00,47.1,35.6,29.74,NNE,14,0.0,0.0,64,0.00,,---,0.00,VWS V14.01,2013-09-09 12:00:00,
2013-09-09 08:05:00,47.3,35.4,29.74,North,357,0.0,0.0,63,0.00,,---,0.00,VWS V14.01,2013-09-09 12:05:00,
2013-09-09 08:10:00,47.5,35.5,29.74,North,0,0.0,0.0,63,0.00,,---,0.00,VWS V14.01,2013-09-09 12:10:00,
2013-09-09 08:15:00,47.7,35.3,29.74,NE,47,4.5,4.5,62,0.00,,---,0.00,VWS V14.01,2013-09-09 12:15:00,
2013-09-09 08:20:00,48.0,35.2,29.74,NNE,31,0.0,0.0,61,0.00,,---,0.00,VWS V14.01,2013-09-09 12:20:00,
2013-09-09 08:25:00,48.4,35.2,29.77,North,0,0.0,0.0,60,0.00,,---,0.00,VWS V14.01,2013-09-09 12:25:00,
2013-09-09 08:30:00,48.7,35.9,29.77,North,5,0.0,0.0,61,0.00,,---,0.00,VWS V14.01,2013-09-09 12:30:00,
2013-09-09 08:35:00,48.9,36.1,29.77,North,353,0.0,0.0,61,0.00,,---,0.00,VWS V14.01,2013-09-09 12:35:00,
2013-09-09 08:40:00,49.3,36.0,29.77,NNW,339,0.0,0.0,60,0.00,,---,0.00,VWS V14.01,2013-09-09 12:40:00,
2013-09-09 08:45:00,49.8,35.7,29.77,North,357,0.0,0.0,58,0.00,,---,0.00,VWS V14.01,2013-09-09 12:45:00,
2013-09-09 08:50:00,50.0,35.8,29.77,North,357,0.0,0.0,58,0.00,,---,0.00,VWS V14.01,2013-09-09 12:50:00,
2013-09-09 08:55:00,50.4,36.2,29.77,NW,314,0.0,0.0,58,0.00,,---,0.00,VWS V14.01,2013-09-09 12:55:00,
2013-09-09 09:00:00,51.1,36.8,29.77,NW,317,0.0,0.0,58,0.00,,---,0.00,VWS V14.01,2013-09-09 13:00:00,
2013-09-09 09:05:00,52.0,37.2,29.77,NW,316,0.0,0.0,57,0.00,,---,0.00,VWS V14.01,2013-09-09 13:05:00,
2013-09-09 09:10:00,54.0,38.6,29.77,NE,34,0.0,0.0,56,0.00,,---,0.00,VWS V14.01,2013-09-09 13:10:00,
2013-09-09 09:15:00,54.5,39.1,29.77,NE,34,0.0,0.0,56,0.00,,---,0.00,VWS V14.01,2013-09-09 13:15:00,
2013-09-09 09:20:00,55.4,38.1,29.77,NE,43,0.0,0.0,52,0.00,,---,0.00,VWS V14.01,2013-09-09 13:20:00,
2013-09-09 09:25:00,56.1,37.8,29.77,NE,43,0.0,0.0,50,0.00,,---,0.00,VWS V14.01,2013-09-09 13:25:00,
2013-09-09 09:30:00,55.9,37.6,29.77,NNW,337,0.0,0.0,50,0.00,,---,0.00,VWS V14.01,2013-09-09 13:30:00,
2013-09-09 09:35:00,55.8,36.9,29.77,NNE,15,0.0,0.0,49,0.00,,---,0.00,VWS V14.01,2013-09-09 13:35:00,
2013-09-09 09:40:00,55.9,36.5,29.77,North,353,8.1,8.1,48,0.00,,---,0.00,VWS V14.01,2013-09-09 13:40:00,
2013-09-09 09:45:00,56.1,37.2,29.77,NW,308,0.0,0.0,49,0.00,,---,0.00,VWS V14.01,2013-09-09 13:45:00,
2013-09-09 09:50:00,56.8,36.8,29.77,ESE,103,0.0,0.0,47,0.00,,---,0.00,VWS V14.01,2013-09-09 13:50:00,
2013-09-09 09:55:00,57.0,37.0,29.77,North,0,0.0,0.0,47,0.00,,---,0.00,VWS V14.01,2013-09-09 13:55:00,
2013-09-09 10:00:00,57.2,36.6,29.77,NNE,18,0.0,0.0,46,0.00,,---,0.00,VWS V14.01,2013-09-09 14:00:00,
2013-09-09 10:05:00,57.4,36.8,29.77,NNE,18,0.0,0.0,46,0.00,,---,0.00,VWS V14.01,2013-09-09 14:05:00,
2013-09-09 10:10:00,57.6,37.0,29.77,NNE,18,0.0,0.0,46,0.00,,---,0.00,VWS V14.01,2013-09-09 14:10:00,
2013-09-09 10:15:00,57.9,37.3,29.74,NNE,18,0.0,0.0,46,0.00,,---,0.00,VWS V14.01,2013-09-09 14:15:00,
2013-09-09 10:20:00,58.3,37.0,29.74,NE,51,0.0,0.0,45,0.00,,---,0.00,VWS V14.01,2013-09-09 14:20:00,
2013-09-09 10:25:00,58.6,35.6,29.74,East,83,0.0,0.0,42,0.00,,---,0.00,VWS V14.01,2013-09-09 14:25:00,
2013-09-09 10:30:00,59.5,37.6,29.77,East,83,0.0,0.0,44,0.00,,---,0.00,VWS V14.01,2013-09-09 14:30:00,
2013-09-09 10:35:00,59.5,37.6,29.77,East,89,0.0,0.0,44,0.00,,---,0.00,VWS V14.01,2013-09-09 14:35:00,
2013-09-09 10:40:00,59.7,36.6,29.77,NW,306,0.0,0.0,42,0.00,,---,0.00,VWS V14.01,2013-09-09 14:40:00,
2013-09-09 10:45:00,60.1,38.1,29.77,NW,310,0.0,0.0,44,0.00,,---,0.00,VWS V14.01,2013-09-09 14:45:00,
2013-09-09 10:50:00,60.3,37.1,29.77,WSW,257,0.0,0.0,42,0.00,,---,0.00,VWS V14.01,2013-09-09 14:50:00,
2013-09-09 10:55:00,60.4,38.4,29.77,North,0,0.0,0.0,44,0.00,,---,0.00,VWS V14.01,2013-09-09 14:55:00,
2013-09-09 11:00:00,60.6,38.6,29.74,North,357,0.0,0.0,44,0.00,,---,0.00,VWS V14.01,2013-09-09 15:00:00,
2013-09-09 11:05:00,61.0,37.1,29.74,North,353,0.0,0.0,41,0.00,,---,0.00,VWS V14.01,2013-09-09 15:05:00,
2013-09-09 11:10:00,61.5,37.6,29.74,SSE,150,0.0,0.0,41,0.00,,---,0.00,VWS V14.01,2013-09-09 15:10:00,
2013-09-09 11:15:00,61.7,36.5,29.77,North,353,0.0,0.0,39,0.00,,---,0.00,VWS V14.01,2013-09-09 15:15:00,
2013-09-09 11:20:00,62.2,38.3,29.77,North,353,0.0,0.0,41,0.00,,---,0.00,VWS V14.01,2013-09-09 15:20:00,
2013-09-09 11:25:00,64.2,38.1,29.77,SSE,167,0.0,0.0,38,0.00,,---,0.00,VWS V14.01,2013-09-09 15:25:00,
2013-09-09 11:30:00,66.6,39.5,29.77,South,178,0.0,0.0,37,0.00,,---,0.00,VWS V14.01,2013-09-09 15:30:00,
2013-09-09 11:35:00,68.0,40.8,29.77,SSE,148,0.0,0.0,37,0.00,,---,0.00,VWS V14.01,2013-09-09 15:35:00,
2013-09-09 11:40:00,70.7,43.2,29.77,NNW,343,0.0,0.0,37,0.00,,---,0.00,VWS V14.01,2013-09-09 15:40:00,
2013-09-09 11:45:00,71.6,43.3,29.77,NNW,343,0.0,0.0,36,0.00,,---,0.00,VWS V14.01,2013-09-09 15:45:00,
2013-09-09 11:50:00,73.0,44.5,29.77,NNE,31,0.0,0.0,36,0.00,,---,0.00,VWS V14.01,2013-09-09 15:50:00,
2013-09-09 11:55:00,73.4,44.8,29.77,NW,326,0.0,0.0,36,0.00,,---,0.00,VWS V14.01,2013-09-09 15:55:00,
2013-09-09 12:00:00,73.0,44.5,29.77,North,2,0.0,0.0,36,0.00,,---,0.00,VWS V14.01,2013-09-09 16:00:00,
2013-09-09 12:05:00,73.2,44.7,29.77,WNW,302,0.0,0.0,36,0.00,,---,0.00,VWS V14.01,2013-09-09 16:05:00,
2013-09-09 12:10:00,73.6,45.0,29.77,North,7,0.0,0.0,36,0.00,,---,0.00,VWS V14.01,2013-09-09 16:10:00,
2013-09-09 12:15:00,73.9,45.3,29.74,NE,51,0.0,0.0,36,0.00,,---,0.00,VWS V14.01,2013-09-09 16:15:00,
2013-09-09 12:20:00,74.1,45.5,29.74,East,99,0.0,0.0,36,0.00,,---,0.00,VWS V14.01,2013-09-09 16:20:00,
2013-09-09 12:25:00,72.9,44.4,29.74,SSE,154,0.0,0.0,36,0.00,,---,0.00,VWS V14.01,2013-09-09 16:25:00,
2013-09-09 12:30:00,73.9,45.3,29.74,SW,225,0.0,0.0,36,0.00,,---,0.00,VWS V14.01,2013-09-09 16:30:00,
2013-09-09 12:35:00,74.5,45.8,29.74,SSW,192,0.0,0.0,36,0.00,,---,0.00,VWS V14.01,2013-09-09 16:35:00,
2013-09-09 12:40:00,74.8,46.1,29.74,North,10,0.0,0.0,36,0.00,,---,0.00,VWS V14.01,2013-09-09 16:40:00,
2013-09-09 12:45:00,74.1,45.5,29.74,North,0,5.4,5.4,36,0.00,,---,0.00,VWS V14.01,2013-09-09 16:45:00,
2013-09-09 12:50:00,74.3,45.7,29.74,South,183,0.0,0.0,36,0.00,,---,0.00,VWS V14.01,2013-09-09 16:50:00,
2013-09-09 12:55:00,74.3,45.7,29.74,NNW,338,0.0,0.0,36,0.00,,---,0.00,VWS V14.01,2013-09-09 16:55:00,
2013-09-09 13:00:00,72.7,44.2,29.74,East,83,0.0,0.0,36,0.00,,---,0.00,VWS V14.01,2013-09-09 17:00:00,
2013-09-09 13:05:00,73.2,44.7,29.74,NNW,345,0.0,0.0,36,0.00,,---,0.00,VWS V14.01,2013-09-09 17:05:00,
2013-09-09 13:10:00,73.9,45.3,29.74,North,350,0.0,0.0,36,0.00,,---,0.00,VWS V14.01,2013-09-09 17:10:00,
2013-09-09 13:15:00,74.3,45.7,29.74,NW,308,0.0,0.0,36,0.00,,---,0.00,VWS V14.01,2013-09-09 17:15:00,
2013-09-09 13:20:00,73.9,45.3,29.74,NNW,329,0.0,0.0,36,0.00,,---,0.00,VWS V14.01,2013-09-09 17:20:00,
2013-09-09 13:25:00,73.9,45.3,29.74,SSW,206,0.0,0.0,36,0.00,,---,0.00,VWS V14.01,2013-09-09 17:25:00,
2013-09-09 13:30:00,73.4,44.8,29.74,NW,325,0.0,0.0,36,0.00,,---,0.00,VWS V14.01,2013-09-09 17:30:00,
2013-09-09 13:35:00,73.6,45.0,29.74,SW,218,0.0,0.0,36,0.00,,---,0.00,VWS V14.01,2013-09-09 17:35:00,
2013-09-09 13:40:00,73.2,44.7,29.74,South,177,0.0,0.0,36,0.00,,---,0.00,VWS V14.01,2013-09-09 17:40:00,
2013-09-09 13:45:00,73.8,45.2,29.74,NE,44,0.0,4.5,36,0.00,,---,0.00,VWS V14.01,2013-09-09 17:45:00,
2013-09-09 13:50:00,73.4,44.8,29.74,SSE,162,0.0,0.0,36,0.00,,---,0.00,VWS V14.01,2013-09-09 17:50:00,
2013-09-09 13:55:00,73.9,45.3,29.74,West,265,0.0,0.0,36,0.00,,---,0.00,VWS V14.01,2013-09-09 17:55:00,
2013-09-09 14:00:00,73.2,44.7,29.74,WSW,249,0.0,0.0,36,0.00,,---,0.00,VWS V14.01,2013-09-09 18:00:00,
2013-09-09 14:05:00,72.9,44.4,29.74,SW,232,0.0,0.0,36,0.00,,---,0.00,VWS V14.01,2013-09-09 18:05:00,
2013-09-09 14:10:00,72.7,44.2,29.74,NNW,329,0.0,0.0,36,0.00,,---,0.00,VWS V14.01,2013-09-09 18:10:00,
2013-09-09 14:15:00,71.8,43.4,29.71,SSW,211,0.0,0.0,36,0.00,,---,0.00,VWS V14.01,2013-09-09 18:15:00,
2013-09-09 14:20:00,71.6,43.3,29.71,ENE,71,0.0,0.0,36,0.00,,---,0.00,VWS V14.01,2013-09-09 18:20:00,
2013-09-09 14:25:00,70.2,42.7,29.71,East,84,0.0,0.0,37,0.00,,---,0.00,VWS V14.01,2013-09-09 18:25:00,
2013-09-09 14:30:00,69.4,42.1,29.71,West,281,0.0,0.0,37,0.00,,---,0.00,VWS V14.01,2013-09-09 18:30:00,
2013-09-09 14:35:00,69.1,41.7,29.71,WSW,237,0.0,0.0,37,0.00,,---,0.00,VWS V14.01,2013-09-09 18:35:00,
2013-09-09 14:40:00,68.7,41.4,29.71,SE,135,0.0,0.0,37,0.00,,---,0.00,VWS V14.01,2013-09-09 18:40:00,
2013-09-09 14:45:00,68.7,41.4,29.71,SE,135,0.0,0.0,37,0.00,,---,0.00,VWS V14.01,2013-09-09 18:45:00,
2013-09-09 14:50:00,68.0,40.8,29.71,NW,311,0.0,0.0,37,0.00,,---,0.00,VWS V14.01,2013-09-09 18:50:00,
2013-09-09 14:54:00,67.6,40.5,29.71,East,87,0.0,0.0,37,0.00,,---,0.00,VWS V14.01,2013-09-09 18:54:00,
2013-09-09 14:59:00,67.5,40.3,29.71,NW,314,4.5,5.4,37,0.00,,---,0.00,VWS V14.01,2013-09-09 18:59:00,
2013-09-09 15:04:00,67.1,40.0,29.71,WNW,291,0.0,0.0,37,0.00,,---,0.00,VWS V14.01,2013-09-09 19:04:00,
2013-09-09 15:09:00,66.9,39.8,29.71,NW,304,0.0,0.0,37,0.00,,---,0.00,VWS V14.01,2013-09-09 19:09:00,
2013-09-09 15:14:00,66.6,39.5,29.71,South,176,0.0,0.0,37,0.00,,---,0.00,VWS V14.01,2013-09-09 19:14:00,
2013-09-09 15:19:00,66.4,39.3,29.71,SSW,201,0.0,0.0,37,0.00,,---,0.00,VWS V14.01,2013-09-09 19:19:00,
2013-09-09 15:24:00,66.0,39.7,29.71,SSW,201,0.0,0.0,38,0.00,,---,0.00,VWS V14.01,2013-09-09 19:24:00,
2013-09-09 15:29:00,66.0,39.7,29.74,North,6,0.0,0.0,38,0.00,,---,0.00,VWS V14.01,2013-09-09 19:29:00,
2013-09-09 15:34:00,65.8,39.5,29.74,WSW,241,0.0,0.0,38,0.00,,---,0.00,VWS V14.01,2013-09-09 19:34:00,
2013-09-09 15:39:00,65.7,39.4,29.74,SW,218,0.0,0.0,38,0.00,,---,0.00,VWS V14.01,2013-09-09 19:39:00,
2013-09-09 15:44:00,65.5,39.2,29.71,NW,324,0.0,0.0,38,0.00,,---,0.00,VWS V14.01,2013-09-09 19:44:00,
2013-09-09 15:49:00,65.3,40.4,29.71,WNW,299,0.0,0.0,40,0.00,,---,0.00,VWS V14.01,2013-09-09 19:49:00,
2013-09-09 15:54:00,65.1,38.9,29.71,WNW,299,0.0,0.0,38,0.00,,---,0.00,VWS V14.01,2013-09-09 19:54:00,
2013-09-09 15:59:00,64.9,38.8,29.71,NNE,14,0.0,0.0,38,0.00,,---,0.00,VWS V14.01,2013-09-09 19:59:00,
2013-09-09 16:04:00,64.9,40.1,29.71,WSW,252,0.0,0.0,40,0.00,,---,0.00,VWS V14.01,2013-09-09 20:04:00,
2013-09-09 16:09:00,64.8,39.9,29.71,WNW,288,0.0,0.0,40,0.00,,---,0.00,VWS V14.01,2013-09-09 20:09:00,
2013-09-09 16:14:00,64.6,39.7,29.71,WNW,288,0.0,0.0,40,0.00,,---,0.00,VWS V14.01,2013-09-09 20:14:00,
2013-09-09 16:19:00,64.8,39.9,29.71,WSW,251,0.0,0.0,40,0.00,,---,0.00,VWS V14.01,2013-09-09 20:19:00,
2013-09-09 16:24:00,64.8,39.9,29.71,SW,214,0.0,0.0,40,0.00,,---,0.00,VWS V14.01,2013-09-09 20:24:00,
2013-09-09 16:29:00,64.8,41.8,29.71,SW,214,0.0,0.0,43,0.00,,---,0.00,VWS V14.01,2013-09-09 20:29:00,
2013-09-09 16:34:00,65.3,42.2,29.71,WSW,254,0.0,0.0,43,0.00,,---,0.00,VWS V14.01,2013-09-09 20:34:00,
2013-09-09 16:39:00,65.8,42.7,29.71,NNW,344,0.0,0.0,43,0.00,,---,0.00,VWS V14.01,2013-09-09 20:39:00,
2013-09-09 16:44:00,65.8,42.7,29.71,NNW,344,0.0,0.0,43,0.00,,---,0.00,VWS V14.01,2013-09-09 20:44:00,
2013-09-09 16:49:00,66.6,41.5,29.71,SSW,207,0.0,0.0,40,0.00,,---,0.00,VWS V14.01,2013-09-09 20:49:00,
2013-09-09 16:54:00,68.0,42.8,29.71,North,353,0.0,0.0,40,0.00,,---,0.00,VWS V14.01,2013-09-09 20:54:00,
2013-09-09 16:59:00,68.0,42.8,29.71,SSE,147,0.0,0.0,40,0.00,,---,0.00,VWS V14.01,2013-09-09 20:59:00,
2013-09-09 17:04:00,65.7,42.6,29.71,WNW,297,0.0,0.0,43,0.00,,---,0.00,VWS V14.01,2013-09-09 21:04:00,
2013-09-09 17:09:00,64.4,41.4,29.71,WNW,297,0.0,0.0,43,0.00,,---,0.00,VWS V14.01,2013-09-09 21:09:00,
2013-09-09 17:14:00,64.4,41.4,29.71,NNW,342,0.0,0.0,43,0.00,,---,0.00,VWS V14.01,2013-09-09 21:14:00,
2013-09-09 17:19:00,63.9,41.5,29.71,NNW,342,0.0,0.0,44,0.00,,---,0.00,VWS V14.01,2013-09-09 21:19:00,
2013-09-09 17:24:00,63.9,41.5,29.71,SW,236,0.0,0.0,44,0.00,,---,0.00,VWS V14.01,2013-09-09 21:24:00,
2013-09-09 17:29:00,63.5,41.2,29.71,SSW,197,0.0,0.0,44,0.00,,---,0.00,VWS V14.01,2013-09-09 21:29:00,
2013-09-09 17:34:00,63.3,41.1,29.71,ESE,122,0.0,0.0,44,0.00,,---,0.00,VWS V14.01,2013-09-09 21:34:00,
2013-09-09 17:39:00,63.1,40.9,29.71,ESE,122,0.0,0.0,44,0.00,,---,0.00,VWS V14.01,2013-09-09 21:39:00,
2013-09-09 17:44:00,62.4,40.8,29.71,West,261,0.0,0.0,45,0.00,,---,0.00,VWS V14.01,2013-09-09 21:44:00,
2013-09-09 17:49:00,62.2,40.7,29.71,West,261,0.0,0.0,45,0.00,,---,0.00,VWS V14.01,2013-09-09 21:49:00,
2013-09-09 17:54:00,61.9,40.9,29.71,West,261,0.0,0.0,46,0.00,,---,0.00,VWS V14.01,2013-09-09 21:54:00,
2013-09-09 17:59:00,61.7,40.7,29.71,SW,215,0.0,0.0,46,0.00,,---,0.00,VWS V14.01,2013-09-09 21:59:00,
2013-09-09 18:04:00,61.5,40.6,29.71,SW,215,0.0,0.0,46,0.00,,---,0.00,VWS V14.01,2013-09-09 22:04:00,
2013-09-09 18:09:00,61.3,41.0,29.71,SW,215,0.0,0.0,47,0.00,,---,0.00,VWS V14.01,2013-09-09 22:09:00,
2013-09-09 18:14:00,61.2,40.8,29.71,SW,215,0.0,0.0,47,0.00,,---,0.00,VWS V14.01,2013-09-09 22:14:00,
2013-09-09 18:19:00,61.0,41.2,29.71,SW,215,0.0,0.0,48,0.00,,---,0.00,VWS V14.01,2013-09-09 22:19:00,
2013-09-09 18:24:00,60.8,41.0,29.71,SW,215,0.0,0.0,48,0.00,,---,0.00,VWS V14.01,2013-09-09 22:24:00,
2013-09-09 18:29:00,60.4,41.7,29.71,SW,215,0.0,0.0,50,0.00,,---,0.00,VWS V14.01,2013-09-09 22:29:00,
2013-09-09 18:34:00,60.3,41.6,29.71,SW,216,0.0,0.0,50,0.00,,---,0.00,VWS V14.01,2013-09-09 22:34:00,
2013-09-09 18:39:00,59.9,41.8,29.71,SW,216,0.0,0.0,51,0.00,,---,0.00,VWS V14.01,2013-09-09 22:39:00,
2013-09-09 18:44:00,59.7,42.1,29.71,SW,216,0.0,0.0,52,0.00,,---,0.00,VWS V14.01,2013-09-09 22:44:00,
2013-09-09 18:49:00,59.4,41.8,29.71,SW,216,0.0,0.0,52,0.00,,---,0.00,VWS V14.01,2013-09-09 22:49:00,
2013-09-09 18:54:00,59.2,41.6,29.71,SW,216,0.0,0.0,52,0.00,,---,0.00,VWS V14.01,2013-09-09 22:54:00,
2013-09-09 18:59:00,58.8,42.2,29.71,SW,216,0.0,0.0,54,0.00,,---,0.00,VWS V14.01,2013-09-09 22:59:00,
2013-09-09 19:04:00,58.5,42.4,29.71,SW,216,0.0,0.0,55,0.00,,---,0.00,VWS V14.01,2013-09-09 23:04:00,
2013-09-09 19:09:00,58.5,42.4,29.71,SW,216,0.0,0.0,55,0.00,,---,0.00,VWS V14.01,2013-09-09 23:09:00,
2013-09-09 19:14:00,58.5,42.4,29.71,SW,216,0.0,0.0,55,0.00,,---,0.00,VWS V14.01,2013-09-09 23:14:00,
2013-09-09 19:19:00,57.9,41.9,29.71,SW,216,0.0,0.0,55,0.00,,---,0.00,VWS V14.01,2013-09-09 23:19:00,
2013-09-09 19:24:00,57.6,41.5,29.71,SW,216,0.0,0.0,55,0.00,,---,0.00,VWS V14.01,2013-09-09 23:24:00,
2013-09-09 19:29:00,57.6,42.0,29.71,SW,216,0.0,0.0,56,0.00,,---,0.00,VWS V14.01,2013-09-09 23:29:00,
2013-09-09 19:34:00,57.4,41.8,29.71,SW,216,0.0,0.0,56,0.00,,---,0.00,VWS V14.01,2013-09-09 23:34:00,
2013-09-09 19:39:00,57.2,41.7,29.71,SW,216,0.0,0.0,56,0.00,,---,0.00,VWS V14.01,2013-09-09 23:39:00,
2013-09-09 19:44:00,57.2,41.7,29.68,SW,216,0.0,0.0,56,0.00,,---,0.00,VWS V14.01,2013-09-09 23:44:00,
2013-09-09 19:49:00,56.8,42.2,29.68,SW,216,0.0,0.0,58,0.00,,---,0.00,VWS V14.01,2013-09-09 23:49:00,
2013-09-09 19:54:00,56.7,42.1,29.68,SW,216,0.0,0.0,58,0.00,,---,0.00,VWS V14.01,2013-09-09 23:54:00,
2013-09-09 19:59:00,56.5,41.9,29.68,SW,216,0.0,0.0,58,0.00,,---,0.00,VWS V14.01,2013-09-09 23:59:00,
2013-09-09 20:04:00,56.5,41.9,29.68,SW,216,0.0,0.0,58,0.00,,---,0.00,VWS V14.01,2013-09-10 00:04:00,
2013-09-09 20:09:00,56.3,41.7,29.68,SW,216,0.0,0.0,58,0.00,,---,0.00,VWS V14.01,2013-09-10 00:09:00,
2013-09-09 20:14:00,56.3,41.7,29.68,SSW,202,0.0,0.0,58,0.00,,---,0.00,VWS V14.01,2013-09-10 00:14:00,
2013-09-09 20:19:00,56.3,41.7,29.68,SSW,202,0.0,0.0,58,0.00,,---,0.00,VWS V14.01,2013-09-10 00:19:00,
2013-09-09 20:24:00,56.3,41.7,29.68,SSW,202,0.0,0.0,58,0.00,,---,0.00,VWS V14.01,2013-09-10 00:24:00,
2013-09-09 20:29:00,56.5,41.9,29.71,SSW,202,0.0,0.0,58,0.00,,---,0.00,VWS V14.01,2013-09-10 00:29:00,
2013-09-09 20:34:00,56.5,41.9,29.71,SSW,202,0.0,0.0,58,0.00,,---,0.00,VWS V14.01,2013-09-10 00:34:00,
2013-09-09 20:39:00,56.7,42.1,29.71,SSW,205,0.0,0.0,58,0.00,,---,0.00,VWS V14.01,2013-09-10 00:39:00,
2013-09-09 20:44:00,56.7,42.1,29.71,SW,216,0.0,0.0,58,0.00,,---,0.00,VWS V14.01,2013-09-10 00:44:00,
2013-09-09 20:49:00,56.7,42.1,29.71,SW,216,0.0,0.0,58,0.00,,---,0.00,VWS V14.01,2013-09-10 00:49:00,
2013-09-09 20:54:00,56.7,41.6,29.71,NE,41,0.0,0.0,57,0.00,,---,0.00,VWS V14.01,2013-09-10 00:54:00,
2013-09-09 20:59:00,56.8,41.8,29.71,NE,42,0.0,0.0,57,0.00,,---,0.00,VWS V14.01,2013-09-10 00:59:00,
2013-09-09 21:04:00,56.8,41.8,29.71,SSW,200,0.0,0.0,57,0.00,,---,0.00,VWS V14.01,2013-09-10 01:04:00,
2013-09-09 21:09:00,56.8,41.8,29.71,SSW,202,0.0,0.0,57,0.00,,---,0.00,VWS V14.01,2013-09-10 01:09:00,
2013-09-09 21:14:00,56.8,41.8,29.71,SSW,206,0.0,0.0,57,0.00,,---,0.00,VWS V14.01,2013-09-10 01:14:00,
2013-09-09 21:19:00,56.8,41.8,29.71,SSW,205,0.0,0.0,57,0.00,,---,0.00,VWS V14.01,2013-09-10 01:19:00,
2013-09-09 21:24:00,57.0,41.5,29.71,SSW,205,0.0,0.0,56,0.00,,---,0.00,VWS V14.01,2013-09-10 01:24:00,
2013-09-09 21:29:00,57.0,41.5,29.71,SSW,205,0.0,0.0,56,0.00,,---,0.00,VWS V14.01,2013-09-10 01:29:00,
2013-09-09 21:34:00,56.8,41.3,29.71,SSW,205,0.0,0.0,56,0.00,,---,0.00,VWS V14.01,2013-09-10 01:34:00,
2013-09-09 21:39:00,56.8,41.3,29.71,SSW,205,0.0,0.0,56,0.00,,---,0.00,VWS V14.01,2013-09-10 01:39:00,
2013-09-09 21:44:00,56.8,41.3,29.71,SSW,205,0.0,0.0,56,0.00,,---,0.00,VWS V14.01,2013-09-10 01:44:00,
2013-09-09 21:49:00,56.8,41.8,29.68,SSW,205,0.0,0.0,57,0.00,,---,0.00,VWS V14.01,2013-09-10 01:49:00,
2013-09-09 21:54:00,56.8,41.8,29.68,SSW,205,0.0,0.0,57,0.00,,---,0.00,VWS V14.01,2013-09-10 01:54:00,
2013-09-09 21:59:00,56.8,42.2,29.71,SSW,205,0.0,0.0,58,0.00,,---,0.00,VWS V14.01,2013-09-10 01:59:00,
2013-09-09 22:04:00,56.8,42.2,29.71,SSW,205,0.0,0.0,58,0.00,,---,0.00,VWS V14.01,2013-09-10 02:04:00,
2013-09-09 22:09:00,56.8,42.2,29.71,SSW,205,0.0,0.0,58,0.00,,---,0.00,VWS V14.01,2013-09-10 02:09:00,
2013-09-09 22:14:00,57.0,42.0,29.71,SSW,205,0.0,0.0,57,0.00,,---,0.00,VWS V14.01,2013-09-10 02:14:00,
2013-09-09 22:19:00,57.0,42.0,29.71,SSW,205,0.0,0.0,57,0.00,,---,0.00,VWS V14.01,2013-09-10 02:19:00,
2013-09-09 22:24:00,57.0,42.4,29.71,SW,234,0.0,0.0,58,0.00,,---,0.00,VWS V14.01,2013-09-10 02:24:00,
2013-09-09 22:29:00,57.0,42.0,29.71,SW,234,0.0,0.0,57,0.00,,---,0.00,VWS V14.01,2013-09-10 02:29:00,
2013-09-09 22:34:00,57.2,42.1,29.71,SW,235,0.0,0.0,57,0.00,,---,0.00,VWS V14.01,2013-09-10 02:34:00,
2013-09-09 22:39:00,57.2,42.1,29.71,SW,235,0.0,0.0,57,0.00,,---,0.00,VWS V14.01,2013-09-10 02:39:00,
2013-09-09 22:44:00,57.2,42.6,29.71,WNW,289,0.0,0.0,58,0.00,,---,0.00,VWS V14.01,2013-09-10 02:44:00,
2013-09-09 22:49:00,57.2,42.6,29.71,WNW,289,0.0,0.0,58,0.00,,---,0.00,VWS V14.01,2013-09-10 02:49:00,
2013-09-09 22:54:00,57.2,42.6,29.71,WNW,289,0.0,0.0,58,0.00,,---,0.00,VWS V14.01,2013-09-10 02:54:00,
2013-09-09 22:59:00,57.2,42.1,29.71,WNW,289,0.0,0.0,57,0.00,,---,0.00,VWS V14.01,2013-09-10 02:59:00,
2013-09-09 23:04:00,57.2,42.1,29.71,WNW,289,0.0,0.0,57,0.00,,---,0.00,VWS V14.01,2013-09-10 03:04:00,
2013-09-09 23:09:00,57.2,42.1,29.71,WNW,289,0.0,0.0,57,0.00,,---,0.00,VWS V14.01,2013-09-10 03:09:00,
2013-09-09 23:14:00,57.2,42.1,29.71,WNW,289,0.0,0.0,57,0.00,,---,0.00,VWS V14.01,2013-09-10 03:14:00,
2013-09-09 23:19:00,57.2,42.1,29.71,WNW,289,0.0,0.0,57,0.00,,---,0.00,VWS V14.01,2013-09-10 03:19:00,
2013-09-09 23:24:00,57.0,42.0,29.71,WNW,289,0.0,0.0,57,0.00,,---,0.00,VWS V14.01,2013-09-10 03:24:00,
2013-09-09 23:29:00,57.0,42.4,29.71,WNW,289,0.0,0.0,58,0.00,,---,0.00,VWS V14.01,2013-09-10 03:29:00,
2013-09-09 23:34:00,57.0,42.4,29.71,WNW,289,0.0,0.0,58,0.00,,---,0.00,VWS V14.01,2013-09-10 03:34:00,
2013-09-09 23:39:00,57.0,42.4,29.71,WNW,289,0.0,0.0,58,0.00,,---,0.00,VWS V14.01,2013-09-10 03:39:00,
2013-09-09 23:44:00,57.0,42.4,29.71,WNW,289,0.0,0.0,58,0.00,,---,0.00,VWS V14.01,2013-09-10 03:44:00,
2013-09-09 23:49:00,57.0,42.8,29.71,WNW,296,0.0,0.0,59,0.00,,---,0.00,VWS V14.01,2013-09-10 03:49:00,
2013-09-09 23:54:00,57.2,43.0,29.71,WNW,296,0.0,0.0,59,0.00,,---,0.00,VWS V14.01,2013-09-10 03:54:00,
2013-09-09 23:59:00,57.2,43.5,29.71,WNW,296,0.0,0.0,60,0.00,,---,0.00,VWS V14.01,2013-09-10 03:59:00,